Archival Weather

Salzburg

Salzburg, Austria (LOWS)

Report from: Thursday, September 21, 2023 1:50 PM CEST
Current time: Saturday, February 24, 2024 5:48 PM CET

Current weather – Weather history – Daily summaries
Weather forecast

Temperature27.0°C (80.6°F)
Heat index27.4°C (81.4°F)
Dew point14.0°C (57.2°F)
Winds 3 kts (1.5 m/s, 3.5 mph) Vrb
Winds variableWinds variable from West-Southwest (240°) to Northwest (320°)
Visibility6.2 mi. (10 km)
Clouds Few clouds 6,000 ft. (1,829 m)
Altimeter29.65 in.Hg (1004 mB)
Relative humidity45 %
Density altitude1,918 ft. (585 m)
Remarks No significant changes expected in the next two hours
Flight conditions Visual Meteorological Conditions
Raw dataLOWS 211150Z 29003KT 240V320 9999 FEW060 27/14 Q1004 NOSIG
An error has occurred. This application may no longer respond until reloaded. Reload 🗙